Terminal Aerodrome Forecast
Issued by NWS

Home | Current Version | Previous Version | Text Only | Print | Product List | Glossary On
Versions: 1 2 3 4 5 6 7 8 9 10 11 12 13 14
221
FTUS42 TJSJ 282320
TAFJSJ
TAF
TJSJ 282320Z 2900/2924 09011KT P6SM SCT022 SCT060
      TEMPO 2900/2902 5SM SHRA SCT022 BKN035 BKN060
     FM290300 09008KT P6SM VCSH FEW030 SCT050
     FM291400 07014G22KT P6SM -SHRA SCT026 BKN045 BKN080
     FM292300 10012KT P6SM VCSH SCT026 BKN060=

USA.gov is the U.S. government's official web portal to all federal, state and local government web resources and services.